Time;durP1;ratioP1;P1;durP2;ratioP2;P2;SDS_P1;SDS_P2;PMS_P1;PMS_P2;Temp;Humidity;BMP_temperature;BMP_pressure;BME280_temperature;BME280_humidity;BME280_pressure;Samples;Min_cycle;Max_cycle;Signal;HPM_P1;HPM_P2
2023/05/04 00:01:18;;;;;;;6.70;2.93;;;24.70;99.90;;;;;;4963026;29;20207;-93
2023/05/04 00:03:53;;;;;;;4.60;2.40;;;24.70;99.90;;;;;;4961158;28;20208;-93
2023/05/04 00:06:26;;;;;;;7.97;3.13;;;24.60;99.90;;;;;;4958934;28;20218;-92
2023/05/04 00:08:58;;;;;;;6.53;3.03;;;24.80;99.90;;;;;;4958259;29;20261;-92
2023/05/04 00:11:29;;;;;;;9.50;3.20;;;24.90;99.90;;;;;;4958254;29;20290;-91
2023/05/04 00:14:01;;;;;;;7.73;2.90;;;25.00;99.90;;;;;;4959294;29;20215;-92
2023/05/04 00:16:32;;;;;;;7.17;3.10;;;25.20;99.90;;;;;;4961678;28;20216;-91
2023/05/04 00:19:06;;;;;;;4.43;2.63;;;25.00;99.90;;;;;;4954913;29;20216;-92
2023/05/04 00:21:38;;;;;;;5.47;2.70;;;24.80;99.90;;;;;;4955544;29;20287;-91
2023/05/04 00:24:09;;;;;;;7.93;2.80;;;24.10;99.90;;;;;;4940413;29;20625;-91
2023/05/04 00:26:41;;;;;;;5.13;2.60;;;23.80;99.90;;;;;;4940335;29;20205;-93
2023/05/04 00:29:13;;;;;;;6.10;3.10;;;23.70;99.90;;;;;;4940405;29;20248;-92
2023/05/04 00:31:44;;;;;;;6.07;3.00;;;23.90;99.90;;;;;;4942911;29;20208;-92
2023/05/04 00:34:18;;;;;;;4.40;3.00;;;23.90;99.90;;;;;;4939089;29;20272;-90
2023/05/04 00:36:49;;;;;;;5.10;2.50;;;23.80;99.90;;;;;;4925564;29;20675;-91
2023/05/04 00:39:21;;;;;;;5.43;2.70;;;23.80;99.90;;;;;;4936283;29;20251;-91
2023/05/04 00:41:54;;;;;;;6.23;2.40;;;23.80;99.90;;;;;;4930944;29;20276;-90
2023/05/04 00:44:25;;;;;;;6.43;2.70;;;23.80;99.90;;;;;;4932685;29;20553;-93
2023/05/04 00:46:58;;;;;;;6.47;2.97;;;23.50;99.90;;;;;;4934505;29;20218;-91
2023/05/04 00:49:31;;;;;;;6.60;2.80;;;23.50;99.90;;;;;;4929581;29;20279;-93
2023/05/04 00:52:04;;;;;;;4.97;2.20;;;23.60;99.90;;;;;;4930845;29;20212;-92
2023/05/04 00:54:36;;;;;;;4.23;2.30;;;23.50;99.90;;;;;;4931455;29;20259;-93
2023/05/04 00:57:08;;;;;;;4.80;1.87;;;23.40;99.90;;;;;;4931213;29;21941;-92
2023/05/04 00:59:40;;;;;;;5.07;2.60;;;23.50;99.90;;;;;;4932794;29;20560;-92
2023/05/04 01:02:12;;;;;;;4.40;2.27;;;23.30;99.90;;;;;;4925597;29;20655;-92
2023/05/04 01:04:46;;;;;;;3.50;2.20;;;23.30;99.90;;;;;;4929301;29;20272;-91
2023/05/04 01:07:23;;;;;;;5.77;2.67;;;23.40;99.90;;;;;;4936777;29;20216;-92
2023/05/04 01:09:59;;;;;;;5.40;2.33;;;24.00;99.90;;;;;;4938061;29;20235;-92
2023/05/04 01:12:39;;;;;;;5.77;2.30;;;24.30;99.90;;;;;;4948153;29;20220;-92
2023/05/04 01:15:13;;;;;;;5.23;2.27;;;24.00;99.90;;;;;;4934728;29;20212;-90
2023/05/04 01:17:45;;;;;;;3.57;2.10;;;24.30;99.90;;;;;;4927619;29;20285;-91
2023/05/04 01:20:19;;;;;;;5.33;2.40;;;24.40;99.90;;;;;;4933603;29;20296;-91
2023/05/04 01:22:52;;;;;;;7.40;2.60;;;24.80;99.90;;;;;;4928925;29;20271;-90
2023/05/04 01:25:24;;;;;;;5.33;2.00;;;24.80;99.90;;;;;;4932431;29;20207;-89
2023/05/04 01:28:00;;;;;;;5.43;2.60;;;24.80;99.90;;;;;;4926494;29;20208;-92
2023/05/04 01:30:38;;;;;;;5.40;2.60;;;24.80;99.90;;;;;;4930304;29;20240;-95
2023/05/04 01:33:10;;;;;;;5.13;2.47;;;25.00;99.90;;;;;;4944393;29;20211;-95
2023/05/04 01:35:42;;;;;;;7.77;2.10;;;25.00;99.90;;;;;;4931348;29;20686;-91
2023/05/04 01:38:17;;;;;;;4.00;2.30;;;24.90;99.90;;;;;;4932652;29;20586;-92
2023/05/04 01:40:48;;;;;;;5.90;2.40;;;24.60;99.90;;;;;;4936204;29;20216;-92
2023/05/04 01:43:20;;;;;;;4.03;2.17;;;24.00;99.90;;;;;;4930640;29;20205;-91
2023/05/04 01:45:51;;;;;;;5.40;2.37;;;23.70;99.90;;;;;;4929428;29;21091;-90
2023/05/04 01:48:23;;;;;;;4.03;2.37;;;23.30;99.90;;;;;;4927803;29;20204;-93
2023/05/04 01:50:57;;;;;;;4.33;2.17;;;22.90;99.90;;;;;;4937373;29;20236;-92
2023/05/04 01:53:30;;;;;;;4.70;2.20;;;22.30;99.90;;;;;;4934711;29;20300;-92
2023/05/04 01:56:02;;;;;;;4.90;2.70;;;22.10;99.90;;;;;;4936134;29;20627;-92
2023/05/04 01:58:34;;;;;;;4.60;2.43;;;22.00;99.90;;;;;;4935502;29;20215;-90
2023/05/04 02:01:05;;;;;;;6.83;2.30;;;21.90;99.90;;;;;;4933991;29;20272;-89
2023/05/04 02:03:36;;;;;;;7.00;2.60;;;21.70;99.90;;;;;;4939083;29;20498;-96
2023/05/04 02:06:08;;;;;;;3.30;2.47;;;21.50;99.90;;;;;;4928582;29;20557;-92
2023/05/04 02:08:42;;;;;;;6.80;2.50;;;21.20;99.90;;;;;;4933864;28;20205;-92
2023/05/04 02:11:15;;;;;;;9.63;2.70;;;21.00;99.90;;;;;;4928095;29;20283;-92
2023/05/04 02:13:46;;;;;;;4.10;2.50;;;20.90;99.90;;;;;;4935383;29;20234;-91
2023/05/04 02:16:18;;;;;;;8.13;2.40;;;20.70;99.90;;;;;;4933340;29;20217;-93
2023/05/04 02:18:51;;;;;;;6.57;2.53;;;20.70;99.90;;;;;;4950956;29;20212;-94
2023/05/04 02:21:23;;;;;;;5.07;2.63;;;20.70;99.90;;;;;;4934290;29;20212;-93
2023/05/04 02:23:58;;;;;;;5.07;2.50;;;20.60;99.90;;;;;;4918210;29;20268;-92
2023/05/04 02:26:30;;;;;;;6.07;3.00;;;20.50;99.90;;;;;;4919134;29;20677;-93
2023/05/04 02:29:02;;;;;;;5.37;2.67;;;20.40;99.90;;;;;;4935716;29;20241;-93
2023/05/04 02:31:33;;;;;;;5.77;2.70;;;20.30;99.90;;;;;;4955136;28;20220;-93
2023/05/04 02:34:05;;;;;;;6.53;2.77;;;20.20;99.90;;;;;;4953544;28;20295;-92
2023/05/04 02:36:37;;;;;;;5.03;2.60;;;20.10;99.90;;;;;;4921605;29;20212;-93
2023/05/04 02:39:11;;;;;;;4.07;2.50;;;20.00;99.90;;;;;;4936409;29;20212;-93
2023/05/04 02:41:43;;;;;;;6.03;2.37;;;20.00;99.90;;;;;;4937001;29;20222;-91
2023/05/04 02:44:14;;;;;;;6.77;2.73;;;19.90;99.90;;;;;;4936921;29;20220;-93
2023/05/04 02:46:46;;;;;;;4.37;2.40;;;19.80;99.90;;;;;;4937182;29;20208;-93
2023/05/04 02:49:18;;;;;;;5.10;2.73;;;19.70;99.90;;;;;;4935106;29;20224;-93
2023/05/04 02:51:50;;;;;;;3.73;2.37;;;19.60;99.90;;;;;;4936559;29;20239;-93
2023/05/04 02:54:24;;;;;;;4.63;2.57;;;19.50;99.90;;;;;;4935748;29;20208;-92
2023/05/04 02:56:56;;;;;;;5.43;2.40;;;19.40;99.90;;;;;;4936521;29;20212;-92
2023/05/04 02:59:27;;;;;;;3.50;2.33;;;19.40;99.90;;;;;;4937633;29;20592;-92
2023/05/04 03:01:59;;;;;;;6.77;2.50;;;19.30;99.90;;;;;;4940570;29;20237;-92
2023/05/04 03:04:30;;;;;;;3.53;2.30;;;19.20;99.90;;;;;;4941923;29;20731;-93
2023/05/04 03:07:02;;;;;;;7.43;2.83;;;19.10;99.90;;;;;;4952908;28;20204;-92
2023/05/04 03:09:36;;;;;;;7.53;2.70;;;19.00;99.90;;;;;;4939054;29;20580;-92
2023/05/04 03:12:08;;;;;;;4.87;2.47;;;18.90;99.90;;;;;;4939720;29;20279;-92
2023/05/04 03:14:40;;;;;;;5.07;2.27;;;18.80;99.90;;;;;;4938956;29;20204;-92
2023/05/04 03:17:12;;;;;;;4.93;2.87;;;18.70;99.90;;;;;;4937886;29;20208;-91
2023/05/04 03:19:44;;;;;;;5.27;2.43;;;18.60;99.90;;;;;;4933683;29;20213;-92
2023/05/04 03:22:15;;;;;;;6.23;2.80;;;18.50;99.90;;;;;;4932135;29;20303;-93
2023/05/04 03:24:50;;;;;;;7.00;3.10;;;18.30;99.90;;;;;;4940210;29;20216;-93
2023/05/04 03:27:22;;;;;;;5.80;2.30;;;18.20;99.90;;;;;;4931258;29;20200;-92
2023/05/04 03:29:54;;;;;;;5.83;2.80;;;18.10;99.90;;;;;;4928003;29;20216;-92
2023/05/04 03:32:25;;;;;;;5.17;2.63;;;18.00;99.90;;;;;;4936581;29;20789;-93
2023/05/04 03:34:57;;;;;;;6.20;2.50;;;18.00;99.90;;;;;;4941973;29;20200;-92
2023/05/04 03:37:29;;;;;;;5.63;3.00;;;18.00;99.90;;;;;;4940235;28;20235;-91
2023/05/04 03:40:02;;;;;;;6.73;2.70;;;17.90;99.90;;;;;;4937725;29;20214;-92
2023/05/04 03:42:36;;;;;;;4.57;2.90;;;17.80;99.90;;;;;;4939951;29;20215;-91
2023/05/04 03:45:10;;;;;;;5.57;2.83;;;17.70;99.90;;;;;;4937729;29;20267;-92
2023/05/04 03:47:41;;;;;;;9.63;3.40;;;17.60;99.90;;;;;;4943579;29;20193;-93
2023/05/04 03:50:13;;;;;;;8.03;2.97;;;17.60;99.90;;;;;;4939772;29;20209;-92
2023/05/04 03:52:43;;;;;;;7.27;2.97;;;17.60;99.90;;;;;;4939178;29;20240;-92
2023/05/04 03:55:17;;;;;;;5.23;2.73;;;17.60;99.90;;;;;;4939669;29;20212;-92
2023/05/04 03:57:49;;;;;;;5.63;2.80;;;17.60;99.90;;;;;;4938338;29;20213;-90
2023/05/04 04:00:20;;;;;;;7.50;3.53;;;17.50;99.90;;;;;;4939192;29;20270;-91
2023/05/04 04:02:52;;;;;;;6.40;3.13;;;17.40;99.90;;;;;;4941074;29;20220;-91
2023/05/04 04:05:24;;;;;;;5.40;3.13;;;17.30;99.90;;;;;;4945012;29;20219;-91
2023/05/04 04:07:56;;;;;;;6.70;2.87;;;17.30;99.90;;;;;;4931573;29;20201;-91
2023/05/04 04:10:30;;;;;;;5.63;2.70;;;17.30;99.90;;;;;;4935578;29;20212;-91
2023/05/04 04:13:02;;;;;;;7.00;3.13;;;17.30;99.90;;;;;;4935673;29;20231;-91
2023/05/04 04:15:34;;;;;;;5.50;2.70;;;17.30;99.90;;;;;;4938311;29;20216;-91
2023/05/04 04:18:05;;;;;;;6.00;2.80;;;17.40;99.90;;;;;;4937871;29;20209;-91
2023/05/04 04:20:37;;;;;;;7.00;2.97;;;17.30;99.90;;;;;;4937311;29;20208;-91
2023/05/04 04:23:09;;;;;;;7.03;2.93;;;17.20;99.90;;;;;;4925524;29;20224;-90
2023/05/04 04:25:42;;;;;;;6.50;3.10;;;17.10;99.90;;;;;;4936754;29;20215;-92
2023/05/04 04:28:15;;;;;;;7.03;3.40;;;17.00;99.90;;;;;;4934344;29;20586;-93
2023/05/04 04:30:47;;;;;;;5.47;2.90;;;16.90;99.90;;;;;;4932188;29;20620;-92
2023/05/04 04:33:19;;;;;;;8.00;3.30;;;16.80;99.90;;;;;;4929495;29;20812;-92
2023/05/04 04:35:51;;;;;;;4.57;2.80;;;16.80;99.90;;;;;;4921672;29;20272;-93
2023/05/04 04:38:23;;;;;;;6.20;3.53;;;16.70;99.90;;;;;;4923011;29;20224;-93
2023/05/04 04:40:57;;;;;;;8.13;3.10;;;16.70;99.90;;;;;;4938207;29;20749;-93
2023/05/04 04:43:29;;;;;;;4.97;2.90;;;16.70;99.90;;;;;;4948618;29;20205;-92
2023/05/04 04:46:02;;;;;;;6.30;2.97;;;16.80;99.90;;;;;;4956642;28;20200;-91
2023/05/04 04:48:35;;;;;;;8.57;2.90;;;16.70;99.90;;;;;;4943028;29;20667;-92
2023/05/04 04:51:12;;;;;;;6.60;3.03;;;16.80;99.90;;;;;;4933654;29;20211;-92
2023/05/04 04:53:44;;;;;;;5.93;2.87;;;16.80;99.90;;;;;;4938159;29;20597;-92
2023/05/04 04:56:20;;;;;;;5.27;2.80;;;16.80;99.90;;;;;;4934503;29;20204;-91
2023/05/04 04:58:52;;;;;;;6.13;3.17;;;16.70;99.90;;;;;;4928187;29;20213;-91
2023/05/04 05:01:25;;;;;;;5.30;2.90;;;16.70;99.90;;;;;;4933463;29;20245;-92
2023/05/04 05:03:56;;;;;;;6.27;2.93;;;16.70;99.90;;;;;;4931219;29;20209;-91
2023/05/04 05:06:28;;;;;;;4.13;2.80;;;16.70;99.90;;;;;;4935206;29;20208;-90
2023/05/04 05:09:00;;;;;;;6.80;2.50;;;16.70;99.90;;;;;;4935097;29;20216;-91
2023/05/04 05:11:34;;;;;;;7.07;3.70;;;16.80;99.90;;;;;;4929462;29;20211;-91
2023/05/04 05:14:06;;;;;;;3.63;3.00;;;16.70;99.90;;;;;;4937075;29;20215;-92
2023/05/04 05:16:37;;;;;;;4.97;2.77;;;16.60;99.90;;;;;;4928243;29;20220;-92
2023/05/04 05:19:09;;;;;;;3.90;2.90;;;16.60;99.90;;;;;;4937353;29;20200;-91
2023/05/04 05:21:41;;;;;;;5.13;2.80;;;16.60;99.90;;;;;;4935467;29;20712;-91
2023/05/04 05:24:12;;;;;;;6.80;2.90;;;16.50;99.90;;;;;;4930774;29;20259;-92
2023/05/04 05:26:46;;;;;;;6.47;2.50;;;16.40;99.90;;;;;;4933792;29;20211;-91
2023/05/04 05:29:18;;;;;;;6.73;2.53;;;16.30;99.90;;;;;;4929776;29;20663;-91
2023/05/04 05:31:50;;;;;;;5.67;2.60;;;16.20;99.90;;;;;;4929797;29;20288;-90
2023/05/04 05:34:22;;;;;;;6.90;2.47;;;16.10;99.90;;;;;;4943977;29;20276;-92
2023/05/04 05:36:54;;;;;;;7.40;2.40;;;16.00;99.90;;;;;;4938447;29;20231;-91
2023/05/04 05:39:26;;;;;;;5.67;2.53;;;15.90;99.90;;;;;;4936279;29;20200;-93
2023/05/04 05:42:01;;;;;;;3.97;2.10;;;15.80;99.90;;;;;;4924004;29;20236;-92
2023/05/04 05:44:32;;;;;;;5.77;2.07;;;15.70;99.90;;;;;;4942071;29;20240;-94
2023/05/04 05:47:04;;;;;;;4.17;1.93;;;15.50;99.90;;;;;;4938534;29;20238;-93
2023/05/04 05:49:35;;;;;;;3.33;1.80;;;15.40;99.90;;;;;;4941636;29;20205;-93
2023/05/04 05:52:07;;;;;;;5.10;1.77;;;15.20;99.90;;;;;;4934258;29;20238;-92
2023/05/04 05:54:39;;;;;;;4.60;1.70;;;15.20;99.90;;;;;;4933999;29;20212;-92
2023/05/04 05:57:13;;;;;;;4.07;1.80;;;15.20;99.90;;;;;;4933458;29;20314;-94
2023/05/04 05:59:45;;;;;;;2.07;1.30;;;15.20;99.90;;;;;;4930430;29;20205;-92
2023/05/04 06:02:16;;;;;;;3.27;1.30;;;14.90;99.90;;;;;;4938893;29;20235;-92
2023/05/04 06:04:49;;;;;;;2.80;1.30;;;14.90;99.90;;;;;;4938750;29;20216;-94
2023/05/04 06:07:21;;;;;;;2.20;1.20;;;14.70;99.90;;;;;;4935932;29;20279;-94
2023/05/04 06:09:53;;;;;;;3.07;1.27;;;14.50;99.90;;;;;;4937014;29;20690;-93
2023/05/04 06:12:27;;;;;;;1.63;1.23;;;14.30;99.90;;;;;;4936843;29;20228;-92
2023/05/04 06:15:00;;;;;;;4.60;1.50;;;14.10;99.90;;;;;;4926425;29;20263;-91
2023/05/04 06:17:32;;;;;;;2.93;1.17;;;14.10;99.90;;;;;;4939902;28;20606;-91
2023/05/04 06:20:04;;;;;;;2.97;1.27;;;14.00;99.90;;;;;;4950896;28;20211;-92
2023/05/04 06:22:35;;;;;;;3.10;1.30;;;14.00;99.90;;;;;;4951571;29;20216;-92
2023/05/04 06:25:07;;;;;;;2.20;1.40;;;14.00;99.90;;;;;;4937199;29;20263;-92
2023/05/04 06:27:41;;;;;;;1.40;1.30;;;13.90;99.90;;;;;;4940353;29;20212;-92
2023/05/04 06:30:13;;;;;;;4.43;1.60;;;13.90;99.90;;;;;;4941688;29;20715;-93
2023/05/04 06:32:45;;;;;;;3.60;1.30;;;13.50;99.90;;;;;;4936772;29;20239;-92
2023/05/04 06:35:17;;;;;;;2.63;1.50;;;13.50;99.90;;;;;;4954257;29;20291;-93
2023/05/04 06:37:49;;;;;;;2.50;1.23;;;13.40;99.90;;;;;;4939802;29;20212;-93
2023/05/04 06:40:21;;;;;;;3.90;1.50;;;13.30;99.90;;;;;;4941262;29;20267;-92
2023/05/04 06:42:54;;;;;;;2.83;1.20;;;13.30;99.90;;;;;;4941491;29;20212;-93
2023/05/04 06:45:26;;;;;;;3.40;1.53;;;13.30;99.90;;;;;;4943495;29;20204;-93
2023/05/04 06:47:58;;;;;;;3.00;1.10;;;13.30;99.90;;;;;;4945999;29;20327;-92
2023/05/04 06:50:30;;;;;;;1.80;1.20;;;13.40;99.90;;;;;;4942063;29;20294;-92
2023/05/04 06:53:07;;;;;;;2.23;1.23;;;13.40;99.90;;;;;;4953561;29;20254;-92
2023/05/04 06:55:39;;;;;;;2.10;1.10;;;13.50;99.90;;;;;;4950214;29;20220;-91
2023/05/04 06:58:14;;;;;;;3.40;1.30;;;13.50;99.90;;;;;;4950258;28;20216;-93
2023/05/04 07:00:45;;;;;;;2.90;1.10;;;13.40;99.90;;;;;;4962664;28;20240;-92
2023/05/04 07:03:17;;;;;;;2.30;1.40;;;13.50;99.90;;;;;;4954235;28;20256;-93
2023/05/04 07:05:49;;;;;;;1.63;1.07;;;13.40;99.90;;;;;;4952722;29;20278;-93
2023/05/04 07:08:21;;;;;;;3.53;1.40;;;13.40;99.90;;;;;;4965359;28;20207;-93
2023/05/04 07:10:52;;;;;;;2.93;1.03;;;13.20;99.90;;;;;;4967825;28;20211;-92
2023/05/04 07:13:26;;;;;;;1.60;1.10;;;13.20;99.90;;;;;;4963564;28;20238;-93
2023/05/04 07:15:57;;;;;;;1.97;1.13;;;13.30;99.90;;;;;;4958419;28;20250;-92
2023/05/04 07:18:30;;;;;;;2.20;1.30;;;13.30;99.90;;;;;;4952091;29;20267;-92
2023/05/04 07:21:01;;;;;;;2.40;1.30;;;13.30;99.90;;;;;;4931803;29;20280;-90
2023/05/04 07:23:54;;;;;;;3.97;1.43;;;13.40;99.90;;;;;;4939729;29;20284;-91
2023/05/04 07:26:26;;;;;;;2.80;1.40;;;13.50;99.90;;;;;;4967419;28;20212;-90
2023/05/04 07:29:00;;;;;;;2.23;1.00;;;13.60;99.90;;;;;;4935526;29;20272;-91
2023/05/04 07:31:32;;;;;;;2.43;1.07;;;13.50;99.90;;;;;;4931621;29;20236;-91
2023/05/04 07:34:04;;;;;;;3.97;1.47;;;13.60;99.90;;;;;;4925354;29;20260;-91
2023/05/04 07:36:37;;;;;;;1.67;1.20;;;13.60;99.90;;;;;;4937896;29;20257;-91
2023/05/04 07:39:13;;;;;;;3.63;1.40;;;13.60;99.90;;;;;;4969151;28;20647;-91
2023/05/04 07:41:44;;;;;;;3.13;1.40;;;13.40;99.90;;;;;;4932631;29;20214;-92
2023/05/04 07:44:21;;;;;;;3.07;1.10;;;13.30;99.90;;;;;;4931072;29;20205;-92
2023/05/04 07:46:54;;;;;;;2.30;1.40;;;13.40;99.90;;;;;;4925727;29;20205;-91
2023/05/04 07:49:26;;;;;;;2.57;1.20;;;13.40;99.90;;;;;;4938689;29;20204;-92
2023/05/04 07:51:57;;;;;;;1.63;1.27;;;13.50;99.90;;;;;;4930191;29;20251;-92
2023/05/04 07:54:29;;;;;;;3.13;1.20;;;13.60;99.90;;;;;;4941252;29;20235;-93
2023/05/04 07:57:03;;;;;;;2.53;1.20;;;13.60;99.90;;;;;;4940788;28;20216;-93
2023/05/04 07:59:37;;;;;;;1.53;1.00;;;13.60;99.90;;;;;;4939791;29;20204;-93
2023/05/04 08:02:09;;;;;;;2.87;1.23;;;13.60;99.90;;;;;;4940480;29;20212;-93
2023/05/04 08:04:41;;;;;;;1.83;1.20;;;13.60;99.90;;;;;;4945419;28;20230;-93
2023/05/04 08:07:14;;;;;;;4.67;1.30;;;13.60;99.90;;;;;;4939450;29;20221;-93
2023/05/04 08:09:46;;;;;;;1.80;1.03;;;13.60;99.90;;;;;;4938632;29;20208;-92
2023/05/04 08:12:18;;;;;;;2.03;1.27;;;13.40;99.90;;;;;;4939237;29;20220;-92
2023/05/04 08:14:51;;;;;;;2.27;1.20;;;13.40;99.90;;;;;;4920009;29;20241;-92
2023/05/04 08:17:23;;;;;;;4.20;1.50;;;13.30;99.90;;;;;;4920281;29;20656;-93
2023/05/04 08:19:55;;;;;;;2.40;1.27;;;13.30;99.90;;;;;;4918953;29;20559;-91
2023/05/04 08:22:27;;;;;;;3.77;1.20;;;13.30;99.90;;;;;;4920110;29;20794;-91
2023/05/04 08:24:59;;;;;;;1.83;1.10;;;13.30;99.90;;;;;;4919806;29;20209;-92
2023/05/04 08:27:31;;;;;;;2.00;1.43;;;13.30;99.90;;;;;;4919946;29;20213;-92
2023/05/04 08:30:06;;;;;;;1.73;1.30;;;13.20;99.90;;;;;;4920116;29;20220;-92
2023/05/04 08:32:37;;;;;;;3.57;1.37;;;13.20;99.90;;;;;;4919587;29;20207;-92
2023/05/04 08:35:10;;;;;;;3.63;1.37;;;13.20;99.90;;;;;;4919286;29;20726;-91
2023/05/04 08:37:42;;;;;;;1.67;1.30;;;13.20;99.90;;;;;;4918210;29;20707;-92
2023/05/04 08:40:14;;;;;;;3.03;1.50;;;13.30;99.90;;;;;;4918552;29;20265;-92
2023/05/04 08:42:49;;;;;;;3.03;1.57;;;13.40;99.90;;;;;;4919857;29;20661;-91
2023/05/04 08:45:23;;;;;;;2.63;1.40;;;13.40;99.90;;;;;;4919760;29;20212;-93
2023/05/04 08:47:55;;;;;;;4.20;1.57;;;13.50;99.90;;;;;;4919212;29;20220;-93
2023/05/04 08:50:28;;;;;;;2.23;1.60;;;13.50;99.90;;;;;;4919057;29;20205;-93
2023/05/04 08:53:01;;;;;;;1.73;1.37;;;13.60;99.90;;;;;;4920179;29;20212;-93
2023/05/04 08:55:34;;;;;;;3.13;1.53;;;13.60;99.90;;;;;;4920731;29;20296;-92
2023/05/04 08:58:09;;;;;;;2.93;1.60;;;13.60;99.90;;;;;;4919112;29;20217;-92
2023/05/04 09:00:44;;;;;;;4.53;1.40;;;13.60;99.90;;;;;;4920184;29;20638;-93
2023/05/04 09:03:15;;;;;;;2.03;1.57;;;13.60;99.90;;;;;;4940598;29;20246;-93
2023/05/04 09:05:49;;;;;;;3.40;1.67;;;13.60;99.90;;;;;;4958689;28;20247;-93
2023/05/04 09:08:21;;;;;;;7.10;1.60;;;13.60;99.90;;;;;;4970431;28;20196;-92
2023/05/04 09:10:53;;;;;;;2.73;1.30;;;13.50;99.90;;;;;;4979618;28;20251;-94
2023/05/04 09:13:25;;;;;;;2.33;1.40;;;13.30;99.90;;;;;;4977820;28;20195;-94
2023/05/04 09:15:59;;;;;;;4.67;1.23;;;13.30;99.90;;;;;;4964280;28;20279;-94
2023/05/04 09:18:42;;;;;;;6.77;2.07;;;13.40;99.90;;;;;;4962403;28;20215;-93
2023/05/04 09:21:13;;;;;;;3.90;1.47;;;13.40;99.90;;;;;;4956605;28;20215;-94
2023/05/04 09:23:49;;;;;;;2.83;1.80;;;13.40;99.90;;;;;;4939237;29;20208;-93
2023/05/04 09:26:29;;;;;;;2.53;1.50;;;13.50;99.90;;;;;;4938581;29;20219;-92
2023/05/04 09:29:12;;;;;;;3.07;1.50;;;13.50;99.90;;;;;;4937171;29;20216;-92
2023/05/04 09:31:50;;;;;;;5.57;1.50;;;13.50;99.90;;;;;;4938164;29;20212;-91
2023/05/04 09:34:22;;;;;;;4.63;1.57;;;13.60;99.90;;;;;;4938150;29;20251;-92
2023/05/04 09:37:02;;;;;;;4.33;1.40;;;13.60;99.90;;;;;;4937602;29;20209;-91
2023/05/04 09:39:34;;;;;;;3.57;1.57;;;13.60;99.90;;;;;;4937553;29;20271;-90
2023/05/04 09:42:17;;;;;;;2.23;1.70;;;13.60;99.90;;;;;;4937811;29;20212;-91
2023/05/04 09:45:00;;;;;;;1.87;1.33;;;13.70;99.90;;;;;;4937608;29;20216;-92
2023/05/04 09:47:39;;;;;;;2.80;1.40;;;13.70;99.90;;;;;;4937686;29;20282;-93
2023/05/04 09:50:16;;;;;;;2.63;1.80;;;13.60;99.90;;;;;;4937280;29;20218;-91
2023/05/04 09:52:51;;;;;;;2.60;1.60;;;13.60;99.90;;;;;;4937109;29;20288;-93
2023/05/04 09:55:23;;;;;;;3.03;1.43;;;13.60;99.90;;;;;;4936909;29;20335;-92
2023/05/04 09:57:54;;;;;;;2.73;1.50;;;13.60;99.90;;;;;;4936839;29;20291;-93
2023/05/04 10:00:26;;;;;;;2.07;1.57;;;13.50;99.90;;;;;;4937888;29;20259;-91
2023/05/04 10:02:59;;;;;;;2.90;1.57;;;13.50;99.90;;;;;;4937971;29;20366;-93
2023/05/04 10:05:30;;;;;;;3.23;1.53;;;13.50;99.90;;;;;;4937714;29;20592;-93
2023/05/04 10:08:04;;;;;;;1.90;1.60;;;13.50;99.90;;;;;;4937005;29;20219;-93
2023/05/04 10:10:36;;;;;;;2.70;1.60;;;13.30;99.90;;;;;;4936829;29;20259;-93
2023/05/04 10:13:08;;;;;;;3.13;1.63;;;13.20;99.90;;;;;;4937954;29;20216;-93
2023/05/04 10:15:47;;;;;;;3.83;1.50;;;13.10;99.90;;;;;;4937310;29;20262;-93
2023/05/04 10:18:35;;;;;;;2.37;1.47;;;13.00;99.90;;;;;;4936470;29;20222;-93
2023/05/04 10:21:21;;;;;;;3.30;1.73;;;13.00;99.90;;;;;;4937390;29;20213;-93
2023/05/04 10:24:29;;;;;;;3.33;1.60;;;12.90;99.90;;;;;;4937736;29;20224;-93
2023/05/04 10:27:07;;;;;;;1.93;1.67;;;12.90;99.90;;;;;;4937659;29;20278;-93
2023/05/04 10:29:39;;;;;;;1.90;1.60;;;12.80;99.90;;;;;;4936220;29;20200;-91
2023/05/04 10:32:20;;;;;;;4.30;1.70;;;12.80;99.90;;;;;;4937393;29;20208;-92
2023/05/04 10:35:04;;;;;;;6.03;1.83;;;12.90;99.90;;;;;;4937297;29;20236;-92
2023/05/04 10:37:38;;;;;;;1.87;1.43;;;12.80;99.90;;;;;;4936340;29;20291;-94
2023/05/04 10:40:10;;;;;;;3.30;1.47;;;12.80;99.90;;;;;;4936785;29;20205;-92
2023/05/04 10:42:45;;;;;;;4.20;2.07;;;12.60;99.90;;;;;;4937465;29;20303;-92
2023/05/04 10:45:17;;;;;;;3.20;1.50;;;12.60;99.90;;;;;;4937384;29;20294;-93
2023/05/04 10:47:59;;;;;;;3.07;1.50;;;12.60;99.90;;;;;;4936457;29;20268;-92
2023/05/04 10:50:44;;;;;;;2.57;1.60;;;12.70;99.90;;;;;;4937009;29;20294;-92
2023/05/04 10:53:18;;;;;;;4.40;1.67;;;12.60;99.90;;;;;;4936978;29;20208;-91
2023/05/04 10:55:50;;;;;;;3.93;2.23;;;12.50;99.90;;;;;;4936922;29;21044;-92
2023/05/04 10:58:30;;;;;;;2.40;1.50;;;12.50;99.90;;;;;;4936212;29;20212;-93
2023/05/04 11:01:12;;;;;;;3.07;1.40;;;12.50;99.90;;;;;;4937114;29;20219;-95
2023/05/04 11:03:43;;;;;;;1.73;1.23;;;12.50;99.90;;;;;;4937450;29;20205;-94
2023/05/04 11:06:24;;;;;;;3.83;1.40;;;12.40;99.90;;;;;;4935882;29;20228;-93
2023/05/04 11:09:05;;;;;;;2.80;1.43;;;12.30;99.90;;;;;;4936675;29;20670;-95
2023/05/04 11:11:39;;;;;;;3.27;1.10;;;12.40;99.90;;;;;;4936650;29;20267;-93
2023/05/04 11:14:12;;;;;;;4.10;1.10;;;12.30;99.90;;;;;;4936692;29;20236;-93
2023/05/04 11:16:44;;;;;;;3.57;1.30;;;12.30;99.90;;;;;;4945033;29;20232;-92
2023/05/04 11:19:20;;;;;;;7.30;1.90;;;12.30;99.90;;;;;;4953849;29;20253;-94
2023/05/04 11:21:55;;;;;;;8.10;1.70;;;12.20;99.90;;;;;;4965132;28;20228;-93
2023/05/04 11:24:32;;;;;;;7.60;2.50;;;12.00;99.90;;;;;;4972454;28;20200;-93
2023/05/04 11:27:04;;;;;;;7.77;2.27;;;11.80;99.90;;;;;;4950890;29;20220;-93
2023/05/04 11:29:36;;;;;;;7.13;2.47;;;11.70;99.90;;;;;;4943773;29;20217;-95
2023/05/04 11:32:08;;;;;;;5.43;2.10;;;11.60;99.90;;;;;;4942078;29;20259;-95
2023/05/04 11:34:39;;;;;;;4.90;2.20;;;11.50;99.90;;;;;;4944045;29;20289;-92
2023/05/04 11:37:14;;;;;;;7.13;2.60;;;11.40;99.90;;;;;;4940709;29;20312;-93
2023/05/04 11:39:45;;;;;;;4.33;2.20;;;11.30;99.90;;;;;;4940965;29;20240;-93
2023/05/04 11:42:18;;;;;;;5.83;2.13;;;11.20;99.90;;;;;;4938380;29;20219;-93
2023/05/04 11:44:50;;;;;;;4.13;2.50;;;11.10;99.90;;;;;;4939408;29;20212;-92
2023/05/04 11:47:21;;;;;;;2.50;1.90;;;11.10;99.90;;;;;;4939379;29;20216;-92
2023/05/04 11:49:53;;;;;;;2.10;1.67;;;11.10;99.90;;;;;;4938721;29;20215;-93
2023/05/04 11:52:29;;;;;;;3.80;2.20;;;11.10;99.90;;;;;;4938848;29;20224;-92
2023/05/04 11:55:01;;;;;;;4.60;2.23;;;11.10;99.90;;;;;;4939116;29;20588;-92
2023/05/04 11:57:35;;;;;;;4.40;2.20;;;11.20;99.90;;;;;;4939007;29;20224;-96
2023/05/04 12:00:08;;;;;;;4.53;2.00;;;11.20;99.90;;;;;;4938669;29;20272;-94
2023/05/04 12:02:40;;;;;;;3.43;2.20;;;11.20;99.90;;;;;;4939002;29;20236;-94
2023/05/04 12:05:15;;;;;;;4.33;2.33;;;11.20;99.90;;;;;;4939069;29;20248;-94
2023/05/04 12:07:50;;;;;;;4.20;1.70;;;11.20;99.90;;;;;;4938356;29;20634;-95
2023/05/04 12:10:28;;;;;;;3.27;1.90;;;11.20;99.90;;;;;;4939524;29;20216;-94
2023/05/04 12:12:59;;;;;;;4.33;2.00;;;11.20;99.90;;;;;;4939532;29;20667;-93
2023/05/04 12:15:35;;;;;;;5.63;2.20;;;11.20;99.90;;;;;;4937480;29;20781;-93
2023/05/04 12:18:06;;;;;;;5.40;2.60;;;11.20;99.90;;;;;;4937953;29;20586;-93
2023/05/04 12:20:38;;;;;;;7.47;2.20;;;11.20;99.90;;;;;;4938522;29;20663;-93
2023/05/04 12:23:12;;;;;;;4.93;1.90;;;11.20;99.90;;;;;;4939087;29;20670;-93
2023/05/04 12:25:44;;;;;;;3.10;1.93;;;11.20;99.90;;;;;;4938652;29;20522;-92
2023/05/04 12:28:27;;;;;;;3.17;1.93;;;11.20;99.90;;;;;;4937525;29;20216;-92
2023/05/04 12:30:59;;;;;;;3.60;2.20;;;11.20;99.90;;;;;;4937286;29;20208;-93
2023/05/04 12:33:31;;;;;;;3.97;2.10;;;11.10;99.90;;;;;;4597019;28;10000207;-93
2023/05/04 12:36:05;;;;;;;3.50;1.77;;;11.10;99.90;;;;;;4937429;29;20323;-94
2023/05/04 12:38:39;;;;;;;3.23;1.83;;;11.10;99.90;;;;;;4937443;29;20655;-93
2023/05/04 12:41:10;;;;;;;6.37;1.80;;;11.10;99.90;;;;;;4953674;29;20245;-92
2023/05/04 12:43:42;;;;;;;3.13;1.90;;;11.10;99.90;;;;;;4957474;29;20246;-92
2023/05/04 12:46:16;;;;;;;4.27;2.00;;;11.10;99.90;;;;;;4956443;29;20208;-91
2023/05/04 12:48:48;;;;;;;3.43;2.10;;;11.10;99.90;;;;;;4956503;28;20211;-92
2023/05/04 12:51:19;;;;;;;4.77;2.00;;;11.10;99.90;;;;;;4940440;29;20207;-92
2023/05/04 12:53:53;;;;;;;3.97;2.33;;;11.10;99.90;;;;;;4937632;29;20895;-93
2023/05/04 12:56:25;;;;;;;4.83;2.70;;;11.10;99.90;;;;;;4918795;29;20236;-92
2023/05/04 12:58:57;;;;;;;3.87;1.80;;;11.20;99.90;;;;;;4919389;29;20212;-93
2023/05/04 13:01:28;;;;;;;5.70;2.50;;;11.20;99.90;;;;;;4918866;29;20684;-91
2023/05/04 13:04:00;;;;;;;4.73;2.37;;;11.20;99.90;;;;;;4918226;29;20268;-93
2023/05/04 13:06:32;;;;;;;3.83;2.10;;;11.20;99.90;;;;;;4917881;29;20228;-92
2023/05/04 13:09:09;;;;;;;5.20;2.40;;;11.10;99.90;;;;;;4918375;29;20212;-93
2023/05/04 13:11:41;;;;;;;4.03;2.13;;;11.10;99.90;;;;;;4918946;29;20215;-94
2023/05/04 13:14:13;;;;;;;6.10;2.27;;;11.10;99.90;;;;;;4919296;29;20217;-94
2023/05/04 13:16:45;;;;;;;7.20;2.40;;;11.20;99.90;;;;;;4918535;29;20236;-94